Time;durP1;ratioP1;P1;durP2;ratioP2;P2;SDS_P1;SDS_P2;PMS_P1;PMS_P2;Temp;Humidity;BMP_temperature;BMP_pressure;BME280_temperature;BME280_humidity;BME280_pressure;Samples;Min_cycle;Max_cycle;Signal;HPM_P1;HPM_P2
2021/09/10 00:00:55;;;;;;;13.87;12.47;;;;;23.50;100093.00;;;;2070774;28;20812;-59
2021/09/10 00:01:56;;;;;;;13.17;11.97;;;;;23.50;100095.00;;;;2070825;28;20218;-58
2021/09/10 00:02:56;;;;;;;12.10;10.97;;;;;23.50;100087.00;;;;2071043;28;20214;-57
2021/09/10 00:04:01;;;;;;;13.40;12.20;;;;;23.50;100092.00;;;;2070905;28;20210;-58
2021/09/10 00:05:02;;;;;;;13.23;12.02;;;;;23.50;100083.00;;;;2071021;28;20214;-57
2021/09/10 00:06:03;;;;;;;16.50;12.52;;;;;23.50;100088.00;;;;2068745;28;20218;-57
2021/09/10 00:07:03;;;;;;;12.33;11.23;;;;;23.50;100083.00;;;;2059248;28;20211;-57
2021/09/10 00:08:04;;;;;;;12.57;11.37;;;;;23.50;100088.00;;;;2062224;28;20703;-58
2021/09/10 00:09:04;;;;;;;13.57;12.23;;;;;23.50;100090.00;;;;2060427;28;20234;-58
2021/09/10 00:10:06;;;;;;;12.27;11.07;;;;;23.50;100091.00;;;;2062758;28;20211;-57
2021/09/10 00:11:06;;;;;;;14.38;12.98;;;;;23.50;100083.00;;;;2062510;28;20339;-58
2021/09/10 00:12:06;;;;;;;13.30;11.90;;;;;23.50;100086.00;;;;2062658;28;20890;-57
2021/09/10 00:13:07;;;;;;;11.87;10.77;;;;;23.50;100087.00;;;;2061256;28;20631;-57
2021/09/10 00:14:07;;;;;;;12.20;11.10;;;;;23.50;100091.00;;;;2068772;28;20211;-57
2021/09/10 00:15:08;;;;;;;13.03;11.80;;;;;23.50;100083.00;;;;2067864;28;20221;-57
2021/09/10 00:16:08;;;;;;;14.00;12.60;;;;;23.50;100085.00;;;;2062525;28;20349;-57
2021/09/10 00:17:08;;;;;;;13.33;11.93;;;;;23.50;100083.00;;;;2062536;28;20818;-58
2021/09/10 00:18:09;;;;;;;12.23;11.13;;;;;23.50;100083.00;;;;2062292;28;20273;-58
2021/09/10 00:19:09;;;;;;;12.50;11.30;;;;;23.50;100084.00;;;;2061059;28;20235;-58
2021/09/10 00:20:10;;;;;;;11.90;10.77;;;;;23.50;100087.00;;;;2062117;28;20214;-57
2021/09/10 00:21:11;;;;;;;12.63;11.43;;;;;23.50;100101.00;;;;2062025;28;20211;-57
2021/09/10 00:22:11;;;;;;;12.73;11.53;;;;;23.50;100082.00;;;;2061928;28;20557;-57
2021/09/10 00:23:12;;;;;;;12.73;11.63;;;;;23.50;100082.00;;;;2062570;28;20277;-57
2021/09/10 00:24:13;;;;;;;12.03;10.83;;;;;23.50;100084.00;;;;2069005;28;20221;-57
2021/09/10 00:25:13;;;;;;;12.07;10.97;;;;;23.50;100080.00;;;;2069815;28;20469;-58
2021/09/10 00:26:13;;;;;;;13.20;11.90;;;;;23.50;100092.00;;;;2070110;28;20214;-57
2021/09/10 00:27:14;;;;;;;11.87;10.77;;;;;23.50;100087.00;;;;2070108;28;20211;-58
2021/09/10 00:28:14;;;;;;;12.43;11.23;;;;;23.50;100085.00;;;;2069751;28;20218;-58
2021/09/10 00:29:14;;;;;;;12.33;11.20;;;;;23.50;100090.00;;;;2061064;28;21305;-59
2021/09/10 00:30:15;;;;;;;12.00;10.90;;;;;23.50;100088.00;;;;2061933;28;20660;-58
2021/09/10 00:31:15;;;;;;;12.57;11.40;;;;;23.50;100089.00;;;;2061417;28;20226;-56
2021/09/10 00:32:16;;;;;;;11.87;10.77;;;;;23.50;100093.00;;;;2062061;28;20227;-58
2021/09/10 00:33:16;;;;;;;13.47;12.27;;;;;23.50;100087.00;;;;2062368;28;20310;-57
2021/09/10 00:34:17;;;;;;;12.17;11.07;;;;;23.50;100091.00;;;;2062277;28;20695;-58
2021/09/10 00:35:17;;;;;;;12.93;11.63;;;;;23.50;100089.00;;;;2062074;28;20906;-58
2021/09/10 00:36:18;;;;;;;12.23;11.10;;;;;23.50;100090.00;;;;2061397;28;20218;-57
2021/09/10 00:37:18;;;;;;;12.90;11.70;;;;;23.50;100090.00;;;;2062950;28;20226;-57
2021/09/10 00:38:18;;;;;;;12.10;11.00;;;;;23.50;100093.00;;;;2062178;28;20221;-58
2021/09/10 00:39:21;;;;;;;13.07;11.77;;;;;23.50;100091.00;;;;2060918;28;20214;-58
2021/09/10 00:40:21;;;;;;;12.48;11.38;;;;;23.50;100090.00;;;;2061969;28;20215;-57
2021/09/10 00:41:22;;;;;;;13.10;11.90;;;;;23.50;100095.00;;;;2068858;28;20304;-57
2021/09/10 00:42:22;;;;;;;11.07;10.17;;;;;23.50;100090.00;;;;2070066;28;20225;-57
2021/09/10 00:43:23;;;;;;;13.07;11.87;;;;;23.50;100098.00;;;;2070273;28;20280;-58
2021/09/10 00:44:23;;;;;;;12.90;11.57;;;;;23.50;100089.00;;;;2069835;28;20221;-58
2021/09/10 00:45:23;;;;;;;12.90;11.70;;;;;23.50;100101.00;;;;2070245;28;20229;-58
2021/09/10 00:46:24;;;;;;;12.93;11.43;;;;;23.50;100095.00;;;;2067889;28;20574;-56
2021/09/10 00:47:24;;;;;;;12.47;11.37;;;;;23.50;100093.00;;;;2070331;28;20253;-57
2021/09/10 00:48:24;;;;;;;11.40;10.33;;;;;23.50;100095.00;;;;2070187;28;20292;-58
2021/09/10 00:49:25;;;;;;;12.00;10.90;;;;;23.50;100093.00;;;;2068385;28;20745;-58
2021/09/10 00:50:25;;;;;;;11.83;10.73;;;;;23.50;100089.00;;;;2069555;28;20277;-58
2021/09/10 00:51:26;;;;;;;12.40;11.33;;;;;23.50;100085.00;;;;2069441;28;20275;-58
2021/09/10 00:52:26;;;;;;;11.70;10.70;;;;;23.50;100094.00;;;;2070069;28;20260;-58
2021/09/10 00:53:27;;;;;;;11.47;10.47;;;;;23.50;100093.00;;;;2068085;28;20217;-57
2021/09/10 00:54:27;;;;;;;12.52;11.40;;;;;23.50;100092.00;;;;2070084;28;20211;-58
2021/09/10 00:55:29;;;;;;;11.23;10.20;;;;;23.50;100094.00;;;;2070730;28;20560;-57
2021/09/10 00:56:29;;;;;;;10.32;9.38;;;;;23.50;100093.00;;;;2061879;28;20221;-58
2021/09/10 00:57:29;;;;;;;11.53;10.53;;;;;23.50;100092.00;;;;2059693;28;20264;-57
2021/09/10 00:58:30;;;;;;;11.83;10.80;;;;;23.50;100092.00;;;;2061622;28;20288;-62
2021/09/10 00:59:30;;;;;;;12.30;11.20;;;;;23.50;100089.00;;;;2061263;28;20203;-59
2021/09/10 01:00:30;;;;;;;12.77;11.57;;;;;23.50;100083.00;;;;2069399;28;20216;-57
2021/09/10 01:01:32;;;;;;;12.93;11.73;;;;;23.50;100094.00;;;;2061763;28;20218;-59
2021/09/10 01:02:32;;;;;;;11.38;10.35;;;;;23.50;100088.00;;;;2069902;28;20222;-57
2021/09/10 01:03:32;;;;;;;11.97;10.77;;;;;23.50;100083.00;;;;2070594;28;20260;-57
2021/09/10 01:04:33;;;;;;;10.70;9.80;;;;;23.50;100091.00;;;;2070445;28;20423;-56
2021/09/10 01:05:33;;;;;;;11.60;10.50;;;;;23.50;100093.00;;;;2068457;28;20202;-57
2021/09/10 01:06:34;;;;;;;11.37;10.30;;;;;23.50;100087.00;;;;2062407;28;20210;-58
2021/09/10 01:07:34;;;;;;;11.30;10.30;;;;;23.50;100091.00;;;;2063897;28;20210;-58
2021/09/10 01:08:34;;;;;;;11.17;10.27;;;;;23.50;100084.00;;;;2061619;28;20210;-59
2021/09/10 01:09:35;;;;;;;11.90;10.70;;;;;23.50;100091.00;;;;2060351;28;20219;-58
2021/09/10 01:10:35;;;;;;;12.10;11.00;;;;;23.50;100094.00;;;;2053441;28;20211;-58
2021/09/10 01:11:35;;;;;;;10.93;9.93;;;;;23.50;100089.00;;;;2045774;28;20223;-59
2021/09/10 01:12:36;;;;;;;11.53;10.47;;;;;23.50;100093.00;;;;2053684;28;20216;-58
2021/09/10 01:13:36;;;;;;;10.97;10.00;;;;;23.50;100096.00;;;;2051449;28;20314;-58
2021/09/10 01:14:37;;;;;;;11.40;10.40;;;;;23.50;100101.00;;;;2061882;28;20230;-58
2021/09/10 01:15:37;;;;;;;11.30;10.23;;;;;23.50;100095.00;;;;2062501;28;20595;-58
2021/09/10 01:16:38;;;;;;;11.47;10.47;;;;;23.50;100094.00;;;;2061968;28;20601;-57
2021/09/10 01:17:38;;;;;;;11.80;10.60;;;;;23.50;100099.00;;;;2061846;28;20222;-58
2021/09/10 01:18:39;;;;;;;10.63;9.73;;;;;23.50;100093.00;;;;2062410;28;20226;-57
2021/09/10 01:19:39;;;;;;;12.10;11.00;;;;;23.50;100091.00;;;;2061792;28;20222;-58
2021/09/10 01:20:39;;;;;;;10.87;9.83;;;;;23.50;100093.00;;;;2062376;28;20211;-58
2021/09/10 01:21:40;;;;;;;10.80;9.80;;;;;23.50;100091.00;;;;2062103;28;20892;-57
2021/09/10 01:22:40;;;;;;;11.20;10.20;;;;;23.50;100097.00;;;;2064189;28;20215;-58
2021/09/10 01:23:40;;;;;;;11.50;10.40;;;;;23.50;100096.00;;;;2068225;28;20261;-58
2021/09/10 01:25:12;;;;;;;10.83;9.83;;;;;23.50;100098.00;;;;2062554;28;20207;-57
2021/09/10 01:26:12;;;;;;;10.15;9.25;;;;;23.50;100096.00;;;;2062249;28;20226;-57
2021/09/10 01:27:13;;;;;;;10.37;9.43;;;;;23.50;100098.00;;;;2062446;28;20729;-57
2021/09/10 01:28:15;;;;;;;11.23;10.13;;;;;23.50;100089.00;;;;2062323;28;20293;-56
2021/09/10 01:29:15;;;;;;;10.85;9.85;;;;;23.50;100099.00;;;;2061083;28;20300;-57
2021/09/10 01:30:17;;;;;;;11.30;10.40;;;;;23.50;100094.00;;;;2061853;28;20309;-58
2021/09/10 01:31:17;;;;;;;10.05;9.15;;;;;23.50;100098.00;;;;2053547;28;20809;-56
2021/09/10 01:32:18;;;;;;;11.13;10.13;;;;;23.50;100099.00;;;;2061476;28;20249;-57
2021/09/10 01:33:18;;;;;;;10.57;9.60;;;;;23.50;100097.00;;;;2062141;28;20237;-58
2021/09/10 01:34:20;;;;;;;10.70;9.77;;;;;23.50;100089.00;;;;2070059;28;20221;-57
2021/09/10 01:35:20;;;;;;;11.10;10.20;;;;;23.50;100087.00;;;;2070486;28;20256;-57
2021/09/10 01:36:21;;;;;;;10.47;9.57;;;;;23.50;100093.00;;;;2070570;28;20210;-56
2021/09/10 01:37:21;;;;;;;11.37;10.27;;;;;23.50;100091.00;;;;2064045;28;20616;-58
2021/09/10 01:38:22;;;;;;;9.87;9.03;;;;;23.50;100090.00;;;;2062030;28;20556;-57
2021/09/10 01:39:22;;;;;;;10.80;9.80;;;;;23.50;100096.00;;;;2061009;28;20206;-58
2021/09/10 01:40:23;;;;;;;10.67;9.67;;;;;23.50;100096.00;;;;2065007;28;20210;-58
2021/09/10 01:41:23;;;;;;;10.93;9.93;;;;;23.50;100094.00;;;;2069152;28;20590;-59
2021/09/10 01:42:23;;;;;;;10.77;9.77;;;;;23.50;100096.00;;;;2070422;28;20268;-58
2021/09/10 01:43:24;;;;;;;10.40;9.40;;;;;23.50;100116.00;;;;2069967;28;20218;-58
2021/09/10 01:44:24;;;;;;;10.30;9.40;;;;;23.50;100097.00;;;;2065343;28;20206;-58
2021/09/10 01:45:24;;;;;;;10.90;9.97;;;;;23.50;100092.00;;;;2063184;28;20195;-58
2021/09/10 01:46:25;;;;;;;10.70;9.80;;;;;23.50;100089.00;;;;2062331;28;20200;-57
2021/09/10 01:47:25;;;;;;;10.20;9.30;;;;;23.50;100091.00;;;;2062043;28;20203;-57
2021/09/10 01:48:25;;;;;;;10.20;9.20;;;;;23.50;100085.00;;;;2062315;28;20195;-57
2021/09/10 01:49:26;;;;;;;10.37;9.47;;;;;23.50;100098.00;;;;2061328;28;20222;-57
2021/09/10 01:50:26;;;;;;;10.33;9.43;;;;;23.50;100094.00;;;;2064063;28;22428;-57
2021/09/10 01:51:32;;;;;;;10.23;9.33;;;;;23.50;100090.00;;;;2063908;28;20641;-58
2021/09/10 01:52:33;;;;;;;10.82;9.82;;;;;23.50;100094.00;;;;2063564;28;20585;-58
2021/09/10 01:53:33;;;;;;;9.73;8.90;;;;;23.50;100107.00;;;;2064008;28;20306;-57
2021/09/10 01:54:34;;;;;;;9.60;8.70;;;;;23.50;100096.00;;;;2062739;28;20231;-58
2021/09/10 01:55:35;;;;;;;10.47;9.57;;;;;23.50;100102.00;;;;2063255;28;20222;-58
2021/09/10 01:56:35;;;;;;;10.25;9.35;;;;;23.50;100097.00;;;;2066903;28;20595;-59
2021/09/10 01:57:36;;;;;;;9.73;8.93;;;;;23.50;100101.00;;;;2071956;28;20297;-58
2021/09/10 01:58:36;;;;;;;10.13;9.23;;;;;23.50;100103.00;;;;2071898;28;20206;-56
2021/09/10 01:59:36;;;;;;;10.43;9.40;;;;;23.50;100100.00;;;;2058869;28;20294;-58
2021/09/10 02:00:37;;;;;;;10.53;9.63;;;;;23.50;100098.00;;;;2063809;28;20289;-57
2021/09/10 02:01:37;;;;;;;10.10;9.20;;;;;23.50;100097.00;;;;2068884;28;20218;-58
2021/09/10 02:02:38;;;;;;;9.63;8.83;;;;;23.50;100093.00;;;;2071650;28;20222;-58
2021/09/10 02:03:38;;;;;;;9.53;8.73;;;;;23.50;100094.00;;;;2071811;28;20671;-57
2021/09/10 02:04:39;;;;;;;10.13;9.13;;;;;23.50;100098.00;;;;2071726;28;20583;-62
2021/09/10 02:05:39;;;;;;;10.03;9.10;;;;;23.50;100096.00;;;;2071644;28;20221;-59
2021/09/10 02:06:39;;;;;;;10.37;9.37;;;;;23.50;100091.00;;;;2071731;28;20969;-60
2021/09/10 02:07:40;;;;;;;9.70;8.90;;;;;23.50;100096.00;;;;2071836;28;20241;-58
2021/09/10 02:08:40;;;;;;;9.23;8.47;;;;;23.50;100094.00;;;;2071389;28;20214;-56
2021/09/10 02:09:41;;;;;;;9.00;8.30;;;;;23.50;100093.00;;;;2071011;28;20294;-58
2021/09/10 02:10:41;;;;;;;10.30;9.40;;;;;23.50;100100.00;;;;2070440;28;20218;-58
2021/09/10 02:11:41;;;;;;;10.67;9.67;;;;;23.50;100088.00;;;;2062873;28;20218;-57
2021/09/10 02:12:42;;;;;;;10.50;9.47;;;;;23.50;100097.00;;;;2063725;28;20722;-58
2021/09/10 02:13:43;;;;;;;9.65;8.65;;;;;23.50;100091.00;;;;2070428;28;20241;-57
2021/09/10 02:14:43;;;;;;;10.17;9.27;;;;;23.50;100093.00;;;;2069013;28;20215;-57
2021/09/10 02:15:43;;;;;;;8.83;8.03;;;;;23.50;100089.00;;;;2064456;28;20218;-57
2021/09/10 02:16:44;;;;;;;9.73;8.83;;;;;23.50;100092.00;;;;2062619;28;20230;-57
2021/09/10 02:17:44;;;;;;;9.63;8.73;;;;;23.50;100091.00;;;;2063090;28;20257;-57
2021/09/10 02:18:44;;;;;;;9.00;8.30;;;;;23.50;100091.00;;;;2062386;28;20632;-57
2021/09/10 02:19:45;;;;;;;9.23;8.43;;;;;23.50;100083.00;;;;2062538;28;20218;-57
2021/09/10 02:20:45;;;;;;;9.40;8.60;;;;;23.50;100096.00;;;;2065285;28;20218;-57
2021/09/10 02:21:45;;;;;;;9.40;8.50;;;;;23.50;100095.00;;;;2070709;28;20218;-56
2021/09/10 02:22:46;;;;;;;9.83;8.93;;;;;23.50;100099.00;;;;2071313;28;20570;-57
2021/09/10 02:23:46;;;;;;;9.63;8.73;;;;;23.50;100096.00;;;;2071036;28;20241;-57
2021/09/10 02:24:46;;;;;;;9.50;8.70;;;;;23.50;100089.00;;;;2071240;28;20218;-58
2021/09/10 02:25:47;;;;;;;9.30;8.40;;;;;23.50;100099.00;;;;2071111;28;20219;-57
2021/09/10 02:26:47;;;;;;;9.77;8.90;;;;;23.50;100092.00;;;;2068577;28;20222;-57
2021/09/10 02:27:48;;;;;;;8.53;7.73;;;;;23.50;100091.00;;;;2071361;28;20628;-58
2021/09/10 02:28:48;;;;;;;9.50;8.70;;;;;23.40;100096.00;;;;2070246;28;20301;-57
2021/09/10 02:29:48;;;;;;;9.60;8.60;;;;;23.50;100098.00;;;;2071089;28;20225;-58
2021/09/10 02:30:49;;;;;;;9.20;8.40;;;;;23.50;100085.00;;;;2070537;28;20225;-57
2021/09/10 02:31:49;;;;;;;8.67;7.97;;;;;23.40;100090.00;;;;2070592;28;20218;-57
2021/09/10 02:32:50;;;;;;;8.93;8.17;;;;;23.50;100088.00;;;;2061628;28;20249;-57
2021/09/10 02:33:50;;;;;;;8.40;7.70;;;;;23.50;100088.00;;;;2078146;28;20213;-58
2021/09/10 02:34:50;;;;;;;10.03;9.13;;;;;23.50;100089.00;;;;2078100;28;20210;-58
2021/09/10 02:35:51;;;;;;;8.97;8.27;;;;;23.50;100091.00;;;;2071815;28;20214;-59
2021/09/10 02:36:51;;;;;;;9.70;8.80;;;;;23.50;100088.00;;;;2071563;28;20218;-58
2021/09/10 02:37:51;;;;;;;9.20;8.30;;;;;23.50;100096.00;;;;2066142;28;20222;-57
2021/09/10 02:38:52;;;;;;;9.03;8.33;;;;;23.50;100092.00;;;;2068450;28;20210;-57
2021/09/10 02:39:52;;;;;;;9.53;8.53;;;;;23.40;100091.00;;;;2071439;28;20697;-58
2021/09/10 02:40:53;;;;;;;9.00;8.30;;;;;23.50;100089.00;;;;2071614;28;20214;-57
2021/09/10 02:41:53;;;;;;;8.63;7.83;;;;;23.40;100086.00;;;;2071197;28;20225;-57
2021/09/10 02:42:53;;;;;;;8.67;7.97;;;;;23.50;100087.00;;;;2071709;28;20360;-57
2021/09/10 02:43:54;;;;;;;8.00;7.30;;;;;23.50;100085.00;;;;2071740;28;20706;-57
2021/09/10 02:44:54;;;;;;;8.77;8.07;;;;;23.50;100094.00;;;;2067835;28;20219;-57
2021/09/10 02:45:54;;;;;;;9.80;8.83;;;;;23.50;100088.00;;;;2064040;28;20265;-57
2021/09/10 02:46:55;;;;;;;8.73;7.83;;;;;23.50;100085.00;;;;2069210;28;20210;-57
2021/09/10 02:47:55;;;;;;;8.70;8.00;;;;;23.50;100092.00;;;;2064032;28;20298;-58
2021/09/10 02:48:55;;;;;;;8.50;7.80;;;;;23.50;100085.00;;;;2062266;28;20226;-57
2021/09/10 02:49:56;;;;;;;8.40;7.63;;;;;23.50;100081.00;;;;2063331;28;20600;-57
2021/09/10 02:50:56;;;;;;;9.30;8.50;;;;;23.40;100079.00;;;;2062928;28;20210;-57
2021/09/10 02:51:56;;;;;;;8.00;7.30;;;;;23.50;100086.00;;;;2062743;28;20285;-56
2021/09/10 02:52:57;;;;;;;8.27;7.57;;;;;23.50;100074.00;;;;2063554;28;20203;-57
2021/09/10 02:53:57;;;;;;;8.43;7.63;;;;;23.50;100077.00;;;;2063709;28;20203;-57
2021/09/10 02:54:57;;;;;;;8.90;8.20;;;;;23.50;100080.00;;;;2063375;28;20210;-57
2021/09/10 02:55:59;;;;;;;8.40;7.70;;;;;23.50;100046.00;;;;2063626;28;20648;-57
2021/09/10 02:56:59;;;;;;;8.63;7.82;;;;;23.50;100067.00;;;;2063432;28;20702;-57
2021/09/10 02:57:59;;;;;;;8.20;7.50;;;;;23.50;100074.00;;;;2063716;28;20218;-56
2021/09/10 02:59:00;;;;;;;7.53;6.90;;;;;23.50;100075.00;;;;2062412;28;20199;-57
2021/09/10 03:00:00;;;;;;;8.77;7.97;;;;;23.50;100076.00;;;;2062907;28;20301;-57
2021/09/10 03:01:00;;;;;;;8.87;8.10;;;;;23.40;100069.00;;;;2071345;28;20199;-57
2021/09/10 03:02:01;;;;;;;7.73;7.13;;;;;23.40;100076.00;;;;2070067;28;20646;-57
2021/09/10 03:03:01;;;;;;;8.23;7.53;;;;;23.50;100067.00;;;;2071735;28;20198;-58
2021/09/10 03:04:01;;;;;;;7.87;7.17;;;;;23.50;100076.00;;;;2071520;28;20214;-58
2021/09/10 03:05:03;;;;;;;8.27;7.57;;;;;23.40;100073.00;;;;2071358;28;20208;-57
2021/09/10 03:06:03;;;;;;;7.82;7.13;;;;;23.50;100068.00;;;;2062304;28;20218;-58
2021/09/10 03:07:04;;;;;;;7.90;7.20;;;;;23.40;100069.00;;;;2070622;28;20498;-56
2021/09/10 03:08:04;;;;;;;8.30;7.60;;;;;23.50;100078.00;;;;2070287;28;20216;-56
2021/09/10 03:09:05;;;;;;;8.10;7.40;;;;;23.50;100070.00;;;;2069554;28;20692;-57
2021/09/10 03:10:06;;;;;;;7.83;7.17;;;;;23.40;100069.00;;;;2070436;28;20214;-58
2021/09/10 03:11:07;;;;;;;8.20;7.55;;;;;23.50;100065.00;;;;2070784;28;20309;-57
2021/09/10 03:12:07;;;;;;;8.30;7.60;;;;;23.40;100059.00;;;;2071217;28;20211;-57
2021/09/10 03:13:08;;;;;;;8.53;7.83;;;;;23.40;100073.00;;;;2071411;28;20206;-58
2021/09/10 03:14:08;;;;;;;7.57;6.87;;;;;23.50;100063.00;;;;2071429;28;20595;-58
2021/09/10 03:15:10;;;;;;;7.93;7.13;;;;;23.50;100066.00;;;;2067209;28;20218;-57
2021/09/10 03:16:10;;;;;;;7.80;7.10;;;;;23.50;100057.00;;;;2069292;28;20221;-58
2021/09/10 03:17:11;;;;;;;7.70;7.00;;;;;23.50;100066.00;;;;2062989;28;20215;-57
2021/09/10 03:18:11;;;;;;;7.57;6.97;;;;;23.50;100061.00;;;;2063284;28;20210;-58
2021/09/10 03:19:11;;;;;;;8.27;7.57;;;;;23.50;100069.00;;;;2062416;28;20214;-58
2021/09/10 03:20:12;;;;;;;7.53;6.83;;;;;23.50;100066.00;;;;2063274;28;20215;-57
2021/09/10 03:21:12;;;;;;;7.43;6.80;;;;;23.50;100064.00;;;;2063109;28;20222;-57
2021/09/10 03:22:13;;;;;;;7.57;6.87;;;;;23.50;100067.00;;;;2069330;28;20722;-57
2021/09/10 03:23:13;;;;;;;7.60;7.00;;;;;23.40;100070.00;;;;2071543;28;20574;-58
2021/09/10 03:24:14;;;;;;;7.80;7.10;;;;;23.50;100069.00;;;;2067894;28;20207;-57
2021/09/10 03:25:14;;;;;;;8.23;7.53;;;;;23.40;100062.00;;;;2063297;28;20222;-59
2021/09/10 03:26:14;;;;;;;8.03;7.33;;;;;23.40;100074.00;;;;2063279;28;20211;-57
2021/09/10 03:27:15;;;;;;;8.03;7.23;;;;;23.40;100063.00;;;;2067763;28;20298;-58
2021/09/10 03:28:15;;;;;;;8.10;7.40;;;;;23.40;100062.00;;;;2071482;28;20214;-57
2021/09/10 03:29:15;;;;;;;7.07;6.47;;;;;23.40;100065.00;;;;2063299;28;20326;-58
2021/09/10 03:30:16;;;;;;;7.57;6.93;;;;;23.40;100061.00;;;;2062969;28;20707;-57
2021/09/10 03:31:16;;;;;;;7.60;6.90;;;;;23.40;100057.00;;;;2065818;28;21135;-57
2021/09/10 03:32:16;;;;;;;8.17;7.47;;;;;23.50;100069.00;;;;2071099;28;20903;-58
2021/09/10 03:33:17;;;;;;;7.43;6.83;;;;;23.40;100067.00;;;;2071501;28;20221;-57
2021/09/10 03:34:17;;;;;;;6.70;6.10;;;;;23.40;100066.00;;;;2071170;28;20308;-58
2021/09/10 03:35:18;;;;;;;7.80;7.20;;;;;23.40;100056.00;;;;2071167;28;20276;-58
2021/09/10 03:36:18;;;;;;;7.60;7.00;;;;;23.50;100061.00;;;;2071386;28;20719;-57
2021/09/10 03:37:18;;;;;;;7.13;6.53;;;;;23.40;100058.00;;;;2071140;28;20218;-58
2021/09/10 03:38:19;;;;;;;6.80;6.30;;;;;23.40;100064.00;;;;2071243;28;20231;-58
2021/09/10 03:39:19;;;;;;;6.90;6.30;;;;;23.50;100062.00;;;;2069316;28;20218;-57
2021/09/10 03:40:19;;;;;;;7.83;7.13;;;;;23.40;100062.00;;;;2064413;28;20289;-57
2021/09/10 03:41:20;;;;;;;7.43;6.83;;;;;23.40;100054.00;;;;2063082;28;20230;-57
2021/09/10 03:42:20;;;;;;;7.27;6.67;;;;;23.50;100056.00;;;;2062420;28;20278;-57
2021/09/10 03:43:20;;;;;;;7.90;7.20;;;;;23.40;100058.00;;;;2062533;28;20218;-57
2021/09/10 03:44:21;;;;;;;7.10;6.50;;;;;23.50;100060.00;;;;2062917;28;20303;-58
2021/09/10 03:45:21;;;;;;;7.20;6.60;;;;;23.50;100059.00;;;;2058586;28;20215;-58
2021/09/10 03:46:22;;;;;;;8.27;7.47;;;;;23.40;100056.00;;;;2062226;28;20210;-57
2021/09/10 03:47:22;;;;;;;7.13;6.43;;;;;23.40;100049.00;;;;2062854;28;20238;-57
2021/09/10 03:48:22;;;;;;;7.10;6.50;;;;;23.40;100058.00;;;;2062934;28;20250;-57
2021/09/10 03:49:23;;;;;;;7.13;6.50;;;;;23.50;100061.00;;;;2061968;28;20477;-58
2021/09/10 03:50:23;;;;;;;7.13;6.53;;;;;23.50;100058.00;;;;2063088;28;20222;-57
2021/09/10 03:51:23;;;;;;;7.53;6.83;;;;;23.50;100061.00;;;;2062539;28;20669;-61
2021/09/10 03:52:24;;;;;;;8.47;7.23;;;;;23.50;100069.00;;;;2062613;28;20254;-58
2021/09/10 03:53:24;;;;;;;7.13;6.53;;;;;23.40;100057.00;;;;2063089;28;20219;-56
2021/09/10 03:54:24;;;;;;;7.03;6.43;;;;;23.40;100057.00;;;;2063104;28;20215;-57
2021/09/10 03:55:25;;;;;;;6.40;5.90;;;;;23.50;100063.00;;;;2062894;28;20226;-57
2021/09/10 03:56:25;;;;;;;6.90;6.33;;;;;23.50;100061.00;;;;2063072;28;20309;-57
2021/09/10 03:57:26;;;;;;;7.53;6.83;;;;;23.40;100062.00;;;;2062962;28;20225;-57
2021/09/10 03:58:26;;;;;;;7.33;6.73;;;;;23.40;100063.00;;;;2063014;28;20219;-57
2021/09/10 03:59:26;;;;;;;6.93;6.43;;;;;23.50;100060.00;;;;2054100;28;20214;-57
2021/09/10 04:00:27;;;;;;;6.90;6.30;;;;;23.40;100055.00;;;;2062277;28;20218;-57
2021/09/10 04:01:27;;;;;;;7.00;6.40;;;;;23.40;100062.00;;;;2062947;28;20786;-58
2021/09/10 04:02:27;;;;;;;7.40;6.80;;;;;23.50;100064.00;;;;2062817;28;20580;-58
2021/09/10 04:03:28;;;;;;;6.87;6.27;;;;;23.50;100048.00;;;;2063032;28;20229;-57
2021/09/10 04:04:28;;;;;;;7.00;6.40;;;;;23.40;100061.00;;;;2063158;28;20757;-57
2021/09/10 04:05:29;;;;;;;6.50;5.90;;;;;23.40;100062.00;;;;2062981;28;20231;-56
2021/09/10 04:06:29;;;;;;;7.07;6.50;;;;;23.40;100065.00;;;;2062851;28;20590;-57
2021/09/10 04:07:29;;;;;;;7.10;6.50;;;;;23.40;100062.00;;;;2062623;28;20257;-57
2021/09/10 04:08:30;;;;;;;6.53;6.03;;;;;23.40;100060.00;;;;2062833;28;20273;-57
2021/09/10 04:09:30;;;;;;;7.00;6.40;;;;;23.50;100070.00;;;;2061786;28;20234;-58
2021/09/10 04:10:30;;;;;;;7.20;6.50;;;;;23.40;100068.00;;;;2059246;28;20215;-58
2021/09/10 04:11:31;;;;;;;6.93;6.33;;;;;23.50;100064.00;;;;2062981;28;20791;-58
2021/09/10 04:12:31;;;;;;;6.73;6.13;;;;;23.50;100067.00;;;;2061378;28;20215;-57
2021/09/10 04:13:31;;;;;;;6.70;6.10;;;;;23.50;100069.00;;;;2062940;28;20302;-57
2021/09/10 04:14:32;;;;;;;6.40;5.80;;;;;23.50;100070.00;;;;2062741;28;20211;-58
2021/09/10 04:15:32;;;;;;;6.83;6.23;;;;;23.40;100065.00;;;;2065051;28;20215;-58
2021/09/10 04:16:35;;;;;;;7.20;6.60;;;;;23.40;100066.00;;;;2062716;28;20210;-57
2021/09/10 04:17:36;;;;;;;6.97;6.38;;;;;23.50;100065.00;;;;2062727;28;20231;-57
2021/09/10 04:18:36;;;;;;;6.93;6.33;;;;;23.40;100070.00;;;;2062883;28;20211;-57
2021/09/10 04:19:36;;;;;;;6.30;5.80;;;;;23.40;100076.00;;;;2061380;28;20219;-57
2021/09/10 04:20:37;;;;;;;6.53;6.03;;;;;23.50;100070.00;;;;2062926;28;20252;-56
2021/09/10 04:21:37;;;;;;;6.67;6.07;;;;;23.40;100067.00;;;;2062929;28;20215;-57
2021/09/10 04:22:38;;;;;;;7.10;6.50;;;;;23.40;100066.00;;;;2062458;28;20575;-56
2021/09/10 04:23:38;;;;;;;6.23;5.63;;;;;23.40;100077.00;;;;2062877;28;20590;-57
2021/09/10 04:24:38;;;;;;;6.50;6.00;;;;;23.50;100067.00;;;;2062926;28;20717;-57
2021/09/10 04:25:39;;;;;;;6.13;5.63;;;;;23.40;100069.00;;;;2062661;28;20262;-58
2021/09/10 04:26:39;;;;;;;6.87;6.27;;;;;23.40;100067.00;;;;2062146;28;20215;-57
2021/09/10 04:27:39;;;;;;;6.50;6.00;;;;;23.40;100067.00;;;;2062866;28;20215;-57
2021/09/10 04:28:40;;;;;;;6.13;5.63;;;;;23.40;100070.00;;;;2061929;28;20215;-57
2021/09/10 04:29:40;;;;;;;6.27;5.67;;;;;23.50;100065.00;;;;2066538;28;20301;-57
2021/09/10 04:30:41;;;;;;;6.60;6.10;;;;;23.40;100065.00;;;;2070795;28;20218;-57
2021/09/10 04:31:41;;;;;;;6.23;5.73;;;;;23.50;100074.00;;;;2070725;28;20210;-58
2021/09/10 04:32:41;;;;;;;6.93;6.33;;;;;23.50;100077.00;;;;2070787;28;20338;-57
2021/09/10 04:33:43;;;;;;;6.87;6.27;;;;;23.40;100070.00;;;;2070931;28;20323;-57
2021/09/10 04:34:45;;;;;;;6.97;6.25;;;;;23.40;100073.00;;;;2070754;28;20216;-57
2021/09/10 04:35:45;;;;;;;6.28;5.78;;;;;23.40;100067.00;;;;2066363;28;20222;-57
2021/09/10 04:36:46;;;;;;;6.20;5.70;;;;;23.50;100074.00;;;;2062584;28;20655;-57
2021/09/10 04:37:46;;;;;;;5.90;5.40;;;;;23.40;100063.00;;;;2062517;28;20242;-58
2021/09/10 04:38:46;;;;;;;6.50;6.00;;;;;23.40;100066.00;;;;2061608;28;20313;-58
2021/09/10 04:39:47;;;;;;;6.23;5.73;;;;;23.40;100064.00;;;;2062163;28;20315;-58
2021/09/10 04:40:47;;;;;;;6.67;6.07;;;;;23.40;100059.00;;;;2062765;28;20317;-57
2021/09/10 04:41:47;;;;;;;5.43;5.03;;;;;23.40;100068.00;;;;2062443;28;20223;-58
2021/09/10 04:42:48;;;;;;;6.37;5.87;;;;;23.50;100059.00;;;;2062802;28;20719;-58
2021/09/10 04:43:48;;;;;;;6.93;6.23;;;;;23.50;100059.00;;;;2061242;28;20292;-56
2021/09/10 04:44:48;;;;;;;6.30;5.73;;;;;23.50;100062.00;;;;2062797;28;20225;-57
2021/09/10 04:45:49;;;;;;;5.77;5.23;;;;;23.50;100062.00;;;;2062769;28;20229;-58
2021/09/10 04:46:49;;;;;;;6.87;6.20;;;;;23.50;100059.00;;;;2062626;28;20270;-58
2021/09/10 04:47:49;;;;;;;6.47;5.97;;;;;23.40;100063.00;;;;2062051;28;20219;-56
2021/09/10 04:48:50;;;;;;;6.57;5.93;;;;;23.50;100058.00;;;;2061328;28;20219;-56
2021/09/10 04:49:50;;;;;;;6.70;6.10;;;;;23.50;100066.00;;;;2062659;28;20687;-56
2021/09/10 04:50:50;;;;;;;8.03;6.10;;;;;23.40;100063.00;;;;2062671;28;20583;-59
2021/09/10 04:51:51;;;;;;;6.73;6.13;;;;;23.40;100066.00;;;;2062833;28;20622;-59
2021/09/10 04:52:51;;;;;;;5.83;5.33;;;;;23.40;100068.00;;;;2062396;28;20302;-58
2021/09/10 04:53:51;;;;;;;5.47;4.97;;;;;23.40;100066.00;;;;2062841;28;20215;-59
2021/09/10 04:54:53;;;;;;;5.50;5.00;;;;;23.40;100069.00;;;;2067878;28;21460;-55
2021/09/10 04:55:53;;;;;;;6.20;5.53;;;;;23.40;100066.00;;;;2070695;28;20226;-58
2021/09/10 04:56:53;;;;;;;6.10;5.60;;;;;23.40;100058.00;;;;2071074;28;20217;-59